Latest Weather Observations for North Island

IDW60801

Issued at 8:03 pm WST Sunday 26 May 2024 (issued every 10 minutes, with the page automatically refreshed every 10 minutes)

About weather observations | Map of weather stations | Latest weather observations for WA | Other Formats
Station Details ID: 008290 Name: NORTH ISLAND Lat: -28.30 Lon: 113.59 Height: 2.2 m
Data from the previous 72 hours. | See also: Recent months at North Island
Date/Time
WST
Temp
°C
App
Temp
°C
Dew
Point
°C
Rel
Hum
%
Delta-T
°C
Wind Press
QNH
hPa
Press
MSL
hPa
Rain since
9am
mm
Dir  Spd
km/h
Gust
km/h
Spd
kts
Gust
kts
26/08:00pm 21.9 20.6 17.3 75 2.8 SSE 20 26 11 14 1021.3 1021.3 0.0
26/07:30pm 22.1 21.1 17.5 75 2.8 S 19 24 10 13 1021.2 1021.2 0.0
26/07:00pm 22.1 20.6 16.4 70 3.4 S 19 24 10 13 1021.1 1021.1 0.0
26/06:30pm 22.1 20.2 15.7 67 3.8 S 20 24 11 13 1020.8 1020.8 0.0
26/06:00pm 22.2 20.1 14.8 63 4.4 S 19 24 10 13 1020.7 1020.7 0.0
26/05:30pm 22.6 20.9 14.7 61 4.7 S 17 24 9 13 1020.7 1020.7 0.0
26/05:00pm 23.3 21.6 14.8 59 5.0 S 17 20 9 11 1020.5 1020.5 0.0
26/04:30pm 23.9 21.8 13.7 52 6.0 SSW 17 20 9 11 1020.4 1020.4 0.0
26/04:00pm 24.5 22.2 13.1 49 6.6 SSW 17 19 9 10 1020.4 1020.4 0.0
26/03:30pm 24.7 22.5 12.0 45 7.2 SSW 15 19 8 10 1020.3 1020.3 0.0
26/03:00pm 25.1 23.6 13.0 47 7.0 SSW 13 17 7 9 1020.2 1020.2 0.0
26/02:30pm 25.5 24.7 13.0 46 7.3 S 9 19 5 10 1020.5 1020.5 0.0
26/02:00pm 25.0 24.2 12.9 47 7.0 NE 9 13 5 7 1020.6 1020.6 0.0
26/01:30pm 24.9 23.9 13.5 49 6.7 NE 11 15 6 8 1020.8 1020.8 0.0
26/01:00pm 24.7 23.4 13.6 50 6.5 NE 13 17 7 9 1021.1 1021.1 0.0
26/12:30pm 25.1 23.9 13.9 49 6.6 ENE 13 17 7 9 1021.5 1021.5 0.0
26/12:00pm 25.5 24.5 14.6 51 6.5 ENE 13 17 7 9 1021.8 1021.8 0.0
26/11:30am 25.1 23.9 15.1 53 6.0 ENE 15 20 8 11 1022.2 1022.2 0.0
26/11:00am 24.8 22.9 14.3 52 6.2 ENE 17 20 9 11 1022.5 1022.5 0.0
26/10:30am 24.0 22.2 14.4 55 5.7 E 17 20 9 11 1022.8 1022.8 0.0
26/10:00am 24.0 22.6 15.5 59 5.1 E 17 20 9 11 1022.9 1022.9 0.0
26/09:30am 23.4 22.1 15.7 62 4.6 E 17 22 9 12 1022.9 1022.9 0.0
26/09:00am 22.7 21.3 15.5 64 4.3 E 17 20 9 11 1023.0 1023.0 0.0
26/08:30am 22.1 20.9 16.1 69 3.6 E 17 22 9 12 1022.7 1022.7 0.0
26/08:00am 21.3 20.1 16.0 72 3.2 E 17 22 9 12 1022.5 1022.5 0.0
26/07:30am 20.2 19.0 16.0 77 2.5 ENE 17 20 9 11 1022.3 1022.3 0.0
26/07:00am 19.7 18.9 16.2 80 2.1 E 15 19 8 10 1022.1 1022.1 0.0
26/06:30am 19.9 19.6 16.5 81 2.0 E 13 19 7 10 1021.9 1021.9 0.0
26/06:00am 20.2 19.3 16.8 81 2.1 ENE 17 20 9 11 1021.6 1021.6 0.0
26/05:30am 20.3 19.9 17.1 82 1.9 ENE 15 19 8 10 1021.3 1021.3 0.0
26/05:00am 20.4 20.0 17.2 82 1.9 ENE 15 20 8 11 1021.2 1021.2 0.0
26/04:30am 19.1 18.2 14.8 76 2.5 E 13 17 7 9 1021.1 1021.1 0.0
26/04:00am 18.1 17.6 13.8 76 2.4 ENE 9 13 5 7 1021.0 1021.0 0.0
26/03:30am 17.5 16.7 12.8 74 2.6 E 9 11 5 6 1020.9 1020.9 0.0
26/03:00am 18.5 17.9 13.6 73 2.8 E 9 11 5 6 1020.9 1020.9 0.0
26/02:30am 18.2 17.5 13.3 73 2.8 E 9 13 5 7 1020.8 1020.8 0.0
26/02:00am 18.7 18.0 13.3 71 3.0 E 9 11 5 6 1020.8 1020.8 0.0
26/01:30am 18.6 17.8 12.8 69 3.3 ENE 9 11 5 6 1021.1 1021.1 0.0
26/01:00am 19.0 18.2 13.0 68 3.4 E 9 13 5 7 1021.2 1021.2 0.0
26/12:30am 19.2 18.5 13.2 68 3.4 E 9 13 5 7 1021.1 1021.1 0.0
26/12:00am 19.6 18.6 13.3 67 3.6 E 11 13 6 7 1021.0 1021.0 0.0
 
Date/Time
WST
Temp
°C
App
Temp
°C
Dew
Point
°C
Rel
Hum
%
Delta-T
°C
Wind Press
QNH
hPa
Press
MSL
hPa
Rain since
9am
mm
Dir  Spd
km/h
Gust
km/h
Spd
kts
Gust
kts
25/11:30pm 19.8 18.4 13.3 66 3.7 ESE 13 15 7 8 1020.9 1020.9 0.0
25/11:00pm 20.1 19.2 13.6 66 3.7 ESE 11 17 6 9 1021.0 1021.0 0.0
25/10:30pm 20.3 19.1 14.0 67 3.6 SE 13 17 7 9 1021.0 1021.0 0.0
25/10:00pm 20.1 18.8 13.6 66 3.7 SE 13 17 7 9 1021.0 1021.0 0.0
25/09:30pm 20.6 18.9 13.6 64 4.0 ESE 15 19 8 10 1021.2 1021.2 0.0
25/09:00pm 19.8 18.5 12.6 63 4.0 ESE 11 15 6 8 1021.2 1021.2 0.0
25/08:30pm 20.5 18.4 12.5 60 4.5 SE 15 17 8 9 1021.1 1021.1 0.0
25/08:00pm 21.0 19.6 13.4 62 4.3 SSE 13 17 7 9 1021.0 1021.0 0.0
25/07:30pm 21.6 20.4 14.0 62 4.4 S 13 19 7 10 1020.7 1020.7 0.0
25/07:00pm 21.7 20.2 14.1 62 4.4 S 15 19 8 10 1020.3 1020.3 0.0
25/06:30pm 22.0 21.2 15.1 65 4.1 S 13 17 7 9 1020.0 1020.0 0.0
25/06:00pm 22.3 20.6 14.7 62 4.5 SSW 17 22 9 12 1019.7 1019.7 0.0
25/05:30pm 22.9 21.9 14.5 59 5.0 S 13 19 7 10 1019.7 1019.7 0.0
25/05:00pm 22.8 21.4 14.6 60 4.8 SSW 15 19 8 10 1019.4 1019.4 0.0
25/04:30pm 24.1 22.3 14.5 55 5.7 SSW 17 20 9 11 1019.1 1019.1 0.0
25/04:00pm 24.3 22.2 15.2 57 5.4 SSW 20 24 11 13 1019.0 1019.0 0.0
25/03:30pm 24.3 23.2 15.2 57 5.5 SW 15 22 8 12 1018.9 1018.9 0.0
25/03:00pm 25.0 23.7 14.8 53 6.1 WSW 15 20 8 11 1018.8 1018.8 0.0
25/02:30pm 25.8 23.3 13.6 46 7.2 W 19 22 10 12 1018.8 1018.8 0.0
25/02:00pm 25.8 23.5 14.0 48 7.0 WSW 19 24 10 13 1018.7 1018.7 0.0
25/01:30pm 26.4 24.7 14.8 49 7.0 WSW 17 24 9 13 1018.7 1018.7 0.0
25/01:00pm 25.9 24.3 15.0 51 6.5 WSW 17 20 9 11 1018.9 1018.9 0.0
25/12:30pm 25.8 24.3 14.3 49 6.8 WSW 15 22 8 12 1019.1 1019.1 0.0
25/12:00pm 25.8 24.3 15.2 52 6.4 WSW 17 20 9 11 1019.2 1019.2 0.0
25/11:30am 26.2 24.9 15.9 53 6.3 WSW 17 20 9 11 1019.2 1019.2 0.0
25/11:00am 25.2 23.4 15.5 55 5.9 WSW 19 24 10 13 1019.4 1019.4 0.0
25/10:30am 25.8 24.7 15.2 52 6.4 W 15 22 8 12 1019.2 1019.2 0.0
25/10:00am 25.8 24.4 15.5 53 6.2 W 17 22 9 12 1018.9 1018.9 0.0
25/09:30am 24.8 23.3 15.4 56 5.7 WSW 17 22 9 12 1018.8 1018.8 0.0
25/09:00am 24.5 22.5 15.4 57 5.5 WSW 20 26 11 14 1018.5 1018.5 0.0
25/08:30am 23.7 21.6 16.2 63 4.6 WSW 22 28 12 15 1018.2 1018.2 0.0
25/08:00am 22.9 20.3 16.9 69 3.7 WSW 26 32 14 17 1017.9 1017.9 0.0
25/07:30am 22.4 20.4 17.3 73 3.1 WSW 24 30 13 16 1017.6 1017.6 0.0
25/07:00am 23.0 22.1 18.1 74 3.1 WSW 20 28 11 15 1017.1 1017.1 0.0
25/06:30am 22.7 21.1 17.4 72 3.3 W 22 32 12 17 1016.8 1016.8 0.0
25/06:00am 22.6 21.5 17.3 72 3.3 W 19 24 10 13 1016.4 1016.4 0.0
25/05:30am 22.5 20.4 16.3 68 3.8 W 22 28 12 15 1016.2 1016.2 0.0
25/05:00am 22.6 20.7 16.6 69 3.7 W 22 28 12 15 1015.9 1015.9 0.0
25/04:30am 22.7 20.3 16.5 68 3.8 W 24 32 13 17 1015.8 1015.8 0.0
25/04:00am 22.6 20.9 16.2 67 3.9 WNW 20 28 11 15 1015.7 1015.7 0.0
25/03:30am 22.7 20.8 16.7 69 3.7 WNW 22 30 12 16 1015.7 1015.7 0.0
25/03:00am 22.6 20.9 16.2 67 3.9 WNW 20 30 11 16 1015.8 1015.8 0.0
25/02:30am 22.7 20.7 16.5 68 3.8 W 22 28 12 15 1015.9 1015.9 0.0
25/02:00am 22.8 20.8 17.3 71 3.4 W 24 30 13 16 1016.0 1016.0 0.0
25/01:30am 22.7 21.2 16.7 69 3.7 WNW 20 24 11 13 1016.1 1016.1 0.0
25/01:00am 22.6 20.7 16.6 69 3.7 W 22 28 12 15 1016.1 1016.1 0.0
25/12:30am 22.6 20.4 15.9 66 4.0 W 22 28 12 15 1016.0 1016.0 0.0
25/12:00am 22.7 20.7 16.5 68 3.8 W 22 30 12 16 1016.0 1016.0 0.0
 
Date/Time
WST
Temp
°C
App
Temp
°C
Dew
Point
°C
Rel
Hum
%
Delta-T
°C
Wind Press
QNH
hPa
Press
MSL
hPa
Rain since
9am
mm
Dir  Spd
km/h
Gust
km/h
Spd
kts
Gust
kts
24/11:30pm 22.8 20.9 16.8 69 3.7 W 22 30 12 16 1016.0 1016.0 0.0
24/11:00pm 22.9 21.1 16.9 69 3.7 WNW 22 26 12 14 1015.9 1015.9 0.0
24/10:30pm 22.8 20.9 16.8 69 3.7 WNW 22 28 12 15 1015.9 1015.9 0.0
24/10:00pm 22.8 21.3 16.8 69 3.7 W 20 28 11 15 1015.8 1015.8 0.0
24/09:30pm 22.9 21.2 17.1 70 3.6 W 22 28 12 15 1015.7 1015.7 0.0
24/09:00pm 23.0 21.3 17.2 70 3.6 W 22 28 12 15 1015.6 1015.6 0.0
24/08:30pm 22.9 21.5 16.9 69 3.7 W 20 28 11 15 1015.3 1015.3 0.0
24/08:00pm 22.8 21.0 15.9 65 4.2 WNW 20 26 11 14 1015.1 1015.1 0.0
24/07:30pm 23.0 21.3 16.3 66 4.1 WNW 20 26 11 14 1014.9 1014.9 0.0
24/07:00pm 23.0 21.3 15.8 64 4.3 WNW 19 24 10 13 1014.6 1014.6 0.0
24/06:30pm 22.9 20.9 15.5 63 4.4 WNW 20 28 11 15 1014.2 1014.2 0.0
24/06:00pm 23.0 21.2 15.6 63 4.4 WNW 19 24 10 13 1013.9 1013.9 0.0
24/05:30pm 23.4 21.6 15.5 61 4.7 WNW 19 24 10 13 1013.8 1013.8 0.0
24/05:00pm 24.3 22.3 15.5 58 5.3 WNW 20 28 11 15 1013.7 1013.7 0.0
24/04:30pm 25.2 23.4 15.5 55 5.9 WNW 19 26 10 14 1013.6 1013.6 0.0
24/04:00pm 25.8 24.1 15.8 54 6.1 WNW 19 24 10 13 1013.5 1013.5 0.0
24/03:30pm 25.9 23.9 15.0 51 6.6 WNW 19 24 10 13 1013.4 1013.4 0.0
24/03:00pm 26.5 24.4 15.2 49 6.8 WNW 20 28 11 15 1013.3 1013.3 0.0
24/02:30pm 26.7 24.5 14.8 48 7.2 NW 20 24 11 13 1013.0 1013.0 0.0
24/02:00pm 26.3 23.3 12.7 43 7.9 WNW 20 28 11 15 1013.1 1013.1 0.0
24/01:30pm 26.9 23.8 12.2 40 8.5 NW 20 26 11 14 1013.2 1013.2 0.0
24/01:00pm 26.5 23.5 12.5 41 8.1 NW 20 26 11 14 1013.4 1013.4 0.0
24/12:30pm 27.6 24.2 11.2 36 9.3 NW 20 24 11 13 1013.6 1013.6 0.0
24/12:00pm 26.5 23.4 12.2 41 8.2 WNW 20 28 11 15 1013.9 1013.9 0.0
24/11:30am 26.6 23.5 13.3 43 7.8 NW 22 28 12 15 1014.0 1014.0 0.0
24/11:00am 26.8 24.6 14.9 48 7.2 NW 20 24 11 13 1014.0 1014.0 0.0
24/10:30am 26.3 24.2 14.7 48 7.0 NW 19 24 10 13 1013.9 1013.9 0.0
24/10:00am 25.8 24.4 14.6 50 6.7 NW 15 20 8 11 1013.7 1013.7 0.0
24/09:30am 25.1 23.8 14.9 53 6.1 NNW 15 19 8 10 1013.8 1013.8 0.0
24/09:00am 25.1 23.2 14.3 51 6.4 WNW 17 22 9 12 1014.0 1014.0 0.0
24/08:30am 25.4 24.1 14.8 52 6.3 NW 15 17 8 9 1013.9 1013.9 0.0
24/08:00am 23.3 21.6 13.5 54 5.7 WNW 15 20 8 11 1013.5 1013.5 0.0
24/07:30am 22.8 20.6 14.4 59 4.9 WNW 19 24 10 13 1013.4 1013.4 0.0
24/07:00am 22.5 21.6 15.8 66 4.0 NNW 15 19 8 10 1013.2 1013.2 0.0
24/06:30am 21.1 20.1 14.5 66 3.9 N 13 15 7 8 1012.7 1012.7 0.0
24/06:00am 20.8 20.0 14.0 65 3.9 N 11 15 6 8 1012.4 1012.4 0.0
24/05:30am 21.2 20.7 13.9 63 4.2 NNE 9 11 5 6 1012.2 1012.2 0.0
24/05:00am 21.6 20.0 14.0 62 4.4 NE 15 17 8 9 1011.6 1011.6 0.0
24/04:30am 21.2 20.2 14.6 66 3.9 NNE 13 19 7 10 1011.8 1011.8 0.0
24/04:00am 21.1 20.1 14.7 67 3.8 NNE 13 17 7 9 1012.0 1012.0 0.0
24/03:30am 20.4 19.2 14.1 67 3.6 NNE 13 15 7 8 1012.2 1012.2 0.0
24/03:00am 20.3 19.0 13.7 66 3.8 NNE 13 15 7 8 1012.5 1012.5 0.0
24/02:30am 20.7 19.5 14.1 66 3.8 NNE 13 15 7 8 1012.6 1012.6 0.0
24/02:00am 21.0 20.0 14.6 67 3.7 NNE 13 17 7 9 1012.6 1012.6 0.0
24/01:30am 19.9 19.0 13.6 67 3.6 NNE 11 13 6 7 1012.9 1012.9 0.0
24/01:00am 17.1 16.3 11.8 71 2.9 NE 7 9 4 5 1012.8 1012.8 0.0
24/12:30am 15.8 14.3 9.2 65 3.4 NE 7 9 4 5 1013.3 1013.3 0.0
24/12:00am 17.8 17.4 12.5 71 2.9 NE 6 7 3 4 1013.6 1013.6 0.0
 
Date/Time
WST
Temp
°C
App
Temp
°C
Dew
Point
°C
Rel
Hum
%
Delta-T
°C
Wind Press
QNH
hPa
Press
MSL
hPa
Rain since
9am
mm
Dir  Spd
km/h
Gust
km/h
Spd
kts
Gust
kts
23/11:30pm 18.0 17.0 11.1 64 3.7 ENE 7 9 4 5 1013.9 1013.9 0.0
23/11:00pm 17.6 16.1 10.5 63 3.8 NE 9 11 5 6 1013.9 1013.9 0.0
23/10:30pm 18.5 18.4 9.6 56 4.7 CALM 0 0 0 0 1014.2 1014.2 0.0
23/10:00pm 18.9 18.8 9.4 54 5.0 CALM 0 0 0 0 1014.2 1014.2 0.0
23/09:30pm 19.5 17.9 8.8 50 5.6 WNW 7 7 4 4 1014.6 1014.6 0.0
23/09:00pm 20.5 18.8 10.0 51 5.6 W 9 9 5 5 1014.6 1014.6 0.0
23/08:30pm 21.7 20.1 10.2 48 6.3 WSW 9 11 5 6 1014.4 1014.4 0.0

Other formats

Comma delimited format used in spreadsheet applications
http://www.bom.gov.au/fwo/IDW60801/IDW60801.94405.axf

JavaScript Object Notation format (JSON) in row-major order
http://www.bom.gov.au/fwo/IDW60801/IDW60801.94405.json

Data quality

Most of these data are generated automatically and are frequently updated. Quality checks on data are not normally performed. It is possible for incorrect values to appear. Refer to information at About Latest Weather Observations and please check the disclaimer before using these data.